sensor_id;sensor_type;location;lat;lon;timestamp;temperature;humidity
13091;DHT22;6611;52.604;13.438;2023-01-08T00:03:34;8.84;78.54
13091;DHT22;6611;52.604;13.438;2023-01-08T00:08:36;8.79;78.68
13091;DHT22;6611;52.604;13.438;2023-01-08T00:13:39;8.69;78.64
13091;DHT22;6611;52.604;13.438;2023-01-08T00:18:40;8.62;79.13
13091;DHT22;6611;52.604;13.438;2023-01-08T00:23:42;8.54;78.89
13091;DHT22;6611;52.604;13.438;2023-01-08T00:28:45;8.54;79.42
13091;DHT22;6611;52.604;13.438;2023-01-08T00:33:47;8.54;78.97
13091;DHT22;6611;52.604;13.438;2023-01-08T00:38:49;8.36;79.54
13091;DHT22;6611;52.604;13.438;2023-01-08T00:43:52;8.40;79.41
13091;DHT22;6611;52.604;13.438;2023-01-08T00:48:53;8.36;79.54
13091;DHT22;6611;52.604;13.438;2023-01-08T00:53:55;8.34;79.24
13091;DHT22;6611;52.604;13.438;2023-01-08T00:58:58;8.23;79.48
13091;DHT22;6611;52.604;13.438;2023-01-08T01:04:00;8.12;79.89
13091;DHT22;6611;52.604;13.438;2023-01-08T01:09:01;8.06;80.06
13091;DHT22;6611;52.604;13.438;2023-01-08T01:14:04;7.99;80.25
13091;DHT22;6611;52.604;13.438;2023-01-08T01:19:06;7.93;80.41
13091;DHT22;6611;52.604;13.438;2023-01-08T01:24:10;8.00;80.32
13091;DHT22;6611;52.604;13.438;2023-01-08T01:29:13;7.87;80.61
13091;DHT22;6611;52.604;13.438;2023-01-08T01:34:15;7.89;80.47
13091;DHT22;6611;52.604;13.438;2023-01-08T01:39:17;7.83;80.61
13091;DHT22;6611;52.604;13.438;2023-01-08T01:44:50;7.83;80.56
13091;DHT22;6611;52.604;13.438;2023-01-08T01:49:54;7.68;80.98
13091;DHT22;6611;52.604;13.438;2023-01-08T01:54:59;7.52;81.62
13091;DHT22;6611;52.604;13.438;2023-01-08T02:00:04;7.64;81.08
13091;DHT22;6611;52.604;13.438;2023-01-08T02:05:07;7.52;81.57
13091;DHT22;6611;52.604;13.438;2023-01-08T02:10:10;7.48;81.71
13091;DHT22;6611;52.604;13.438;2023-01-08T02:15:20;7.33;82.14
13091;DHT22;6611;52.604;13.438;2023-01-08T02:20:28;7.34;82.31
13091;DHT22;6611;52.604;13.438;2023-01-08T02:25:39;7.37;82.02
13091;DHT22;6611;52.604;13.438;2023-01-08T02:30:48;7.33;82.03
13091;DHT22;6611;52.604;13.438;2023-01-08T02:35:53;7.28;82.07
13091;DHT22;6611;52.604;13.438;2023-01-08T02:40:59;7.24;82.22
13091;DHT22;6611;52.604;13.438;2023-01-08T02:46:12;7.15;82.23
13091;DHT22;6611;52.604;13.438;2023-01-08T02:51:18;7.13;82.41
13091;DHT22;6611;52.604;13.438;2023-01-08T02:56:26;7.02;83.13
13091;DHT22;6611;52.604;13.438;2023-01-08T03:01:30;7.10;82.31
13091;DHT22;6611;52.604;13.438;2023-01-08T03:06:34;7.06;82.74
13091;DHT22;6611;52.604;13.438;2023-01-08T03:11:40;6.98;82.85
13091;DHT22;6611;52.604;13.438;2023-01-08T03:16:48;6.89;82.92
13091;DHT22;6611;52.604;13.438;2023-01-08T03:21:53;6.91;83.02
13091;DHT22;6611;52.604;13.438;2023-01-08T03:26:58;6.89;83.05
13091;DHT22;6611;52.604;13.438;2023-01-08T03:32:08;6.85;83.00
13091;DHT22;6611;52.604;13.438;2023-01-08T03:37:13;6.79;83.29
13091;DHT22;6611;52.604;13.438;2023-01-08T03:42:16;6.79;83.24
13091;DHT22;6611;52.604;13.438;2023-01-08T03:47:23;6.75;83.01
13091;DHT22;6611;52.604;13.438;2023-01-08T03:52:27;6.68;83.54
13091;DHT22;6611;52.604;13.438;2023-01-08T03:57:29;6.67;83.49
13091;DHT22;6611;52.604;13.438;2023-01-08T04:02:32;6.64;83.40
13091;DHT22;6611;52.604;13.438;2023-01-08T04:07:34;6.65;83.51
13091;DHT22;6611;52.604;13.438;2023-01-08T04:12:35;6.53;83.90
13091;DHT22;6611;52.604;13.438;2023-01-08T04:17:38;6.57;83.95
13091;DHT22;6611;52.604;13.438;2023-01-08T04:22:40;6.54;83.92
13091;DHT22;6611;52.604;13.438;2023-01-08T04:27:42;6.54;84.28
13091;DHT22;6611;52.604;13.438;2023-01-08T04:32:45;6.60;83.68
13091;DHT22;6611;52.604;13.438;2023-01-08T04:37:46;6.63;83.50
13091;DHT22;6611;52.604;13.438;2023-01-08T04:42:48;6.57;83.77
13091;DHT22;6611;52.604;13.438;2023-01-08T04:47:55;6.48;83.92
13091;DHT22;6611;52.604;13.438;2023-01-08T04:52:57;6.38;84.28
13091;DHT22;6611;52.604;13.438;2023-01-08T04:57:59;6.48;83.88
13091;DHT22;6611;52.604;13.438;2023-01-08T05:03:02;6.40;84.17
13091;DHT22;6611;52.604;13.438;2023-01-08T05:08:04;6.34;84.09
13091;DHT22;6611;52.604;13.438;2023-01-08T05:13:06;6.36;84.49
13091;DHT22;6611;52.604;13.438;2023-01-08T05:18:09;6.32;84.98
13091;DHT22;6611;52.604;13.438;2023-01-08T05:23:11;6.34;84.86
13091;DHT22;6611;52.604;13.438;2023-01-08T05:28:12;6.27;84.30
13091;DHT22;6611;52.604;13.438;2023-01-08T05:33:15;6.30;84.92
13091;DHT22;6611;52.604;13.438;2023-01-08T05:38:17;6.34;84.30
13091;DHT22;6611;52.604;13.438;2023-01-08T05:43:19;6.36;84.58
13091;DHT22;6611;52.604;13.438;2023-01-08T05:48:22;6.50;84.05
13091;DHT22;6611;52.604;13.438;2023-01-08T05:53:23;6.55;84.22
13091;DHT22;6611;52.604;13.438;2023-01-08T05:58:25;6.53;84.64
13091;DHT22;6611;52.604;13.438;2023-01-08T06:03:28;6.65;84.23
13091;DHT22;6611;52.604;13.438;2023-01-08T06:08:30;6.78;83.91
13091;DHT22;6611;52.604;13.438;2023-01-08T06:13:32;6.84;83.69
13091;DHT22;6611;52.604;13.438;2023-01-08T06:18:36;6.89;83.65
13091;DHT22;6611;52.604;13.438;2023-01-08T06:23:37;6.93;83.47
13091;DHT22;6611;52.604;13.438;2023-01-08T06:28:39;7.09;82.88
13091;DHT22;6611;52.604;13.438;2023-01-08T06:33:42;7.16;82.28
13091;DHT22;6611;52.604;13.438;2023-01-08T06:38:44;7.26;82.45
13091;DHT22;6611;52.604;13.438;2023-01-08T06:43:45;7.19;82.55
13091;DHT22;6611;52.604;13.438;2023-01-08T06:48:48;7.28;81.65
13091;DHT22;6611;52.604;13.438;2023-01-08T06:53:50;7.35;82.21
13091;DHT22;6611;52.604;13.438;2023-01-08T06:58:52;7.40;81.92
13091;DHT22;6611;52.604;13.438;2023-01-08T07:03:55;7.40;81.38
13091;DHT22;6611;52.604;13.438;2023-01-08T07:08:56;7.43;81.93
13091;DHT22;6611;52.604;13.438;2023-01-08T07:13:58;7.43;81.75
13091;DHT22;6611;52.604;13.438;2023-01-08T07:19:01;7.48;81.49
13091;DHT22;6611;52.604;13.438;2023-01-08T07:24:03;7.47;81.36
13091;DHT22;6611;52.604;13.438;2023-01-08T07:29:06;7.58;81.30
13091;DHT22;6611;52.604;13.438;2023-01-08T07:34:09;7.52;81.85
13091;DHT22;6611;52.604;13.438;2023-01-08T07:39:11;7.47;81.82
13091;DHT22;6611;52.604;13.438;2023-01-08T07:44:13;7.50;81.95
13091;DHT22;6611;52.604;13.438;2023-01-08T07:49:16;7.58;82.30
13091;DHT22;6611;52.604;13.438;2023-01-08T07:54:17;7.64;82.78
13091;DHT22;6611;52.604;13.438;2023-01-08T07:59:19;7.61;84.17
13091;DHT22;6611;52.604;13.438;2023-01-08T08:04:22;7.72;84.27
13091;DHT22;6611;52.604;13.438;2023-01-08T08:09:24;7.81;84.43
13091;DHT22;6611;52.604;13.438;2023-01-08T08:14:26;7.81;85.05
13091;DHT22;6611;52.604;13.438;2023-01-08T08:19:29;7.82;85.87
13091;DHT22;6611;52.604;13.438;2023-01-08T08:24:31;7.85;85.53
13091;DHT22;6611;52.604;13.438;2023-01-08T08:29:32;7.83;86.41
13091;DHT22;6611;52.604;13.438;2023-01-08T08:34:35;7.89;86.29
13091;DHT22;6611;52.604;13.438;2023-01-08T08:39:37;7.87;86.96
13091;DHT22;6611;52.604;13.438;2023-01-08T08:44:38;7.72;87.51
13091;DHT22;6611;52.604;13.438;2023-01-08T08:49:42;7.76;87.71
13091;DHT22;6611;52.604;13.438;2023-01-08T08:54:43;7.83;87.31
13091;DHT22;6611;52.604;13.438;2023-01-08T08:59:45;7.87;87.51
13091;DHT22;6611;52.604;13.438;2023-01-08T09:04:48;7.96;87.22
13091;DHT22;6611;52.604;13.438;2023-01-08T09:09:50;7.87;87.34
13091;DHT22;6611;52.604;13.438;2023-01-08T09:14:51;7.95;87.03
13091;DHT22;6611;52.604;13.438;2023-01-08T09:19:55;7.99;86.99
13091;DHT22;6611;52.604;13.438;2023-01-08T09:24:57;7.99;86.99
13091;DHT22;6611;52.604;13.438;2023-01-08T09:29:58;8.09;87.22
13091;DHT22;6611;52.604;13.438;2023-01-08T09:35:02;8.17;87.07
13091;DHT22;6611;52.604;13.438;2023-01-08T09:40:05;8.23;86.85
13091;DHT22;6611;52.604;13.438;2023-01-08T09:45:15;8.24;86.82
13091;DHT22;6611;52.604;13.438;2023-01-08T09:50:26;8.30;86.34
13091;DHT22;6611;52.604;13.438;2023-01-08T09:55:32;8.24;86.89
13091;DHT22;6611;52.604;13.438;2023-01-08T10:00:34;8.19;86.95
13091;DHT22;6611;52.604;13.438;2023-01-08T10:05:37;8.10;87.95
13091;DHT22;6611;52.604;13.438;2023-01-08T10:10:42;8.23;88.57
13091;DHT22;6611;52.604;13.438;2023-01-08T10:15:45;8.31;87.62
13091;DHT22;6611;52.604;13.438;2023-01-08T10:20:48;8.55;86.35
13091;DHT22;6611;52.604;13.438;2023-01-08T10:25:52;8.86;85.45
13091;DHT22;6611;52.604;13.438;2023-01-08T10:31:02;9.37;85.49
13091;DHT22;6611;52.604;13.438;2023-01-08T10:36:08;9.04;84.79
13091;DHT22;6611;52.604;13.438;2023-01-08T10:41:12;8.82;87.37
13091;DHT22;6611;52.604;13.438;2023-01-08T10:46:20;8.84;87.11
13091;DHT22;6611;52.604;13.438;2023-01-08T10:51:26;9.06;87.28
13091;DHT22;6611;52.604;13.438;2023-01-08T10:56:38;9.10;87.30
13091;DHT22;6611;52.604;13.438;2023-01-08T11:01:45;9.07;86.83
13091;DHT22;6611;52.604;13.438;2023-01-08T11:06:49;8.97;87.41
13091;DHT22;6611;52.604;13.438;2023-01-08T11:11:50;8.82;88.18
13091;DHT22;6611;52.604;13.438;2023-01-08T11:16:52;8.71;88.43
13091;DHT22;6611;52.604;13.438;2023-01-08T11:22:00;8.61;89.01
13091;DHT22;6611;52.604;13.438;2023-01-08T11:27:05;8.71;89.07
13091;DHT22;6611;52.604;13.438;2023-01-08T11:32:23;9.06;88.83
13091;DHT22;6611;52.604;13.438;2023-01-08T11:37:32;9.04;88.15
13091;DHT22;6611;52.604;13.438;2023-01-08T11:42:46;9.06;87.22
13091;DHT22;6611;52.604;13.438;2023-01-08T11:48:13;9.09;87.14
13091;DHT22;6611;52.604;13.438;2023-01-08T11:53:26;9.04;87.19
13091;DHT22;6611;52.604;13.438;2023-01-08T11:58:37;8.97;86.43
13091;DHT22;6611;52.604;13.438;2023-01-08T12:03:48;9.06;86.72
13091;DHT22;6611;52.604;13.438;2023-01-08T12:09:00;9.14;86.59
13091;DHT22;6611;52.604;13.438;2023-01-08T12:14:18;8.97;86.01
13091;DHT22;6611;52.604;13.438;2023-01-08T12:19:32;9.09;85.99
13091;DHT22;6611;52.604;13.438;2023-01-08T12:24:59;9.09;86.37
13091;DHT22;6611;52.604;13.438;2023-01-08T12:30:13;9.16;86.65
13091;DHT22;6611;52.604;13.438;2023-01-08T12:35:21;9.27;86.09
13091;DHT22;6611;52.604;13.438;2023-01-08T12:40:27;9.28;85.71
13091;DHT22;6611;52.604;13.438;2023-01-08T12:45:31;9.30;85.33
13091;DHT22;6611;52.604;13.438;2023-01-08T12:50:40;9.18;85.45
13091;DHT22;6611;52.604;13.438;2023-01-08T12:55:51;9.23;84.88
13091;DHT22;6611;52.604;13.438;2023-01-08T13:01:01;9.21;85.16
13091;DHT22;6611;52.604;13.438;2023-01-08T13:06:08;9.20;85.65
13091;DHT22;6611;52.604;13.438;2023-01-08T13:11:11;9.06;85.52
13091;DHT22;6611;52.604;13.438;2023-01-08T13:16:18;9.06;85.61
13091;DHT22;6611;52.604;13.438;2023-01-08T13:21:28;9.00;86.00
13091;DHT22;6611;52.604;13.438;2023-01-08T13:26:33;8.96;86.59
13091;DHT22;6611;52.604;13.438;2023-01-08T13:31:38;8.99;86.80
13091;DHT22;6611;52.604;13.438;2023-01-08T13:36:41;8.84;86.81
13091;DHT22;6611;52.604;13.438;2023-01-08T13:41:57;8.87;86.99
13091;DHT22;6611;52.604;13.438;2023-01-08T13:47:00;8.89;87.28
13091;DHT22;6611;52.604;13.438;2023-01-08T13:52:03;8.80;86.86
13091;DHT22;6611;52.604;13.438;2023-01-08T13:57:12;8.72;87.35
13091;DHT22;6611;52.604;13.438;2023-01-08T14:02:21;8.75;87.46
13091;DHT22;6611;52.604;13.438;2023-01-08T14:07:26;8.62;87.66
13091;DHT22;6611;52.604;13.438;2023-01-08T14:12:29;8.66;87.69
13091;DHT22;6611;52.604;13.438;2023-01-08T14:17:31;8.55;88.21
13091;DHT22;6611;52.604;13.438;2023-01-08T14:22:34;8.47;88.22
13091;DHT22;6611;52.604;13.438;2023-01-08T14:27:38;8.38;88.69
13091;DHT22;6611;52.604;13.438;2023-01-08T14:32:42;8.40;88.37
13091;DHT22;6611;52.604;13.438;2023-01-08T14:37:44;8.37;88.27
13091;DHT22;6611;52.604;13.438;2023-01-08T14:42:47;8.26;88.92
13091;DHT22;6611;52.604;13.438;2023-01-08T14:47:54;8.31;88.66
13091;DHT22;6611;52.604;13.438;2023-01-08T14:53:02;8.29;89.22
13091;DHT22;6611;52.604;13.438;2023-01-08T14:58:11;8.17;89.12
13091;DHT22;6611;52.604;13.438;2023-01-08T15:03:33;8.20;88.97
13091;DHT22;6611;52.604;13.438;2023-01-08T15:08:36;8.24;89.01
13091;DHT22;6611;52.604;13.438;2023-01-08T15:13:39;8.20;89.37
13091;DHT22;6611;52.604;13.438;2023-01-08T15:18:43;8.31;88.90
13091;DHT22;6611;52.604;13.438;2023-01-08T15:23:47;8.27;89.34
13091;DHT22;6611;52.604;13.438;2023-01-08T15:28:54;8.14;89.43
13091;DHT22;6611;52.604;13.438;2023-01-08T15:33:58;8.14;89.60
13091;DHT22;6611;52.604;13.438;2023-01-08T15:39:00;8.13;89.56
13091;DHT22;6611;52.604;13.438;2023-01-08T15:44:03;8.12;89.67
13091;DHT22;6611;52.604;13.438;2023-01-08T15:49:05;8.07;89.96
13091;DHT22;6611;52.604;13.438;2023-01-08T15:54:08;8.12;89.68
13091;DHT22;6611;52.604;13.438;2023-01-08T15:59:13;8.06;89.76
13091;DHT22;6611;52.604;13.438;2023-01-08T16:04:14;8.04;89.48
13091;DHT22;6611;52.604;13.438;2023-01-08T16:09:16;8.12;89.38
13091;DHT22;6611;52.604;13.438;2023-01-08T16:14:19;8.00;89.54
13091;DHT22;6611;52.604;13.438;2023-01-08T16:19:21;8.04;89.45
13091;DHT22;6611;52.604;13.438;2023-01-08T16:24:23;8.02;89.52
13091;DHT22;6611;52.604;13.438;2023-01-08T16:29:26;8.16;89.10
13091;DHT22;6611;52.604;13.438;2023-01-08T16:34:28;8.14;88.60
13091;DHT22;6611;52.604;13.438;2023-01-08T16:39:30;8.20;88.69
13091;DHT22;6611;52.604;13.438;2023-01-08T16:44:34;8.20;88.18
13091;DHT22;6611;52.604;13.438;2023-01-08T16:49:36;8.14;88.07
13091;DHT22;6611;52.604;13.438;2023-01-08T16:54:38;8.16;88.27
13091;DHT22;6611;52.604;13.438;2023-01-08T16:59:41;8.23;88.42
13091;DHT22;6611;52.604;13.438;2023-01-08T17:04:43;8.26;87.68
13091;DHT22;6611;52.604;13.438;2023-01-08T17:09:44;8.20;87.85
13091;DHT22;6611;52.604;13.438;2023-01-08T17:14:48;8.12;88.04
13091;DHT22;6611;52.604;13.438;2023-01-08T17:19:50;8.17;87.84
13091;DHT22;6611;52.604;13.438;2023-01-08T17:24:51;8.09;87.71
13091;DHT22;6611;52.604;13.438;2023-01-08T17:29:54;8.00;87.81
13091;DHT22;6611;52.604;13.438;2023-01-08T17:34:56;7.99;87.94
13091;DHT22;6611;52.604;13.438;2023-01-08T17:39:58;7.92;87.94
13091;DHT22;6611;52.604;13.438;2023-01-08T17:45:02;7.85;88.02
13091;DHT22;6611;52.604;13.438;2023-01-08T17:50:05;7.86;87.49
13091;DHT22;6611;52.604;13.438;2023-01-08T17:55:08;7.86;87.62
13091;DHT22;6611;52.604;13.438;2023-01-08T18:00:12;7.71;87.96
13091;DHT22;6611;52.604;13.438;2023-01-08T18:05:14;7.64;88.24
13091;DHT22;6611;52.604;13.438;2023-01-08T18:10:16;7.64;88.18
13091;DHT22;6611;52.604;13.438;2023-01-08T18:15:19;7.61;88.36
13091;DHT22;6611;52.604;13.438;2023-01-08T18:20:21;7.58;88.43
13091;DHT22;6611;52.604;13.438;2023-01-08T18:25:22;7.69;87.97
13091;DHT22;6611;52.604;13.438;2023-01-08T18:30:25;7.59;88.46
13091;DHT22;6611;52.604;13.438;2023-01-08T18:35:29;7.51;88.86
13091;DHT22;6611;52.604;13.438;2023-01-08T18:40:31;7.46;89.01
13091;DHT22;6611;52.604;13.438;2023-01-08T18:45:34;7.54;88.69
13091;DHT22;6611;52.604;13.438;2023-01-08T18:50:38;7.47;88.91
13091;DHT22;6611;52.604;13.438;2023-01-08T18:55:39;7.47;88.81
13091;DHT22;6611;52.604;13.438;2023-01-08T19:00:42;7.43;88.90
13091;DHT22;6611;52.604;13.438;2023-01-08T19:05:44;7.43;88.76
13091;DHT22;6611;52.604;13.438;2023-01-08T19:10:46;7.34;89.15
13091;DHT22;6611;52.604;13.438;2023-01-08T19:15:50;7.34;89.06
13091;DHT22;6611;52.604;13.438;2023-01-08T19:20:52;7.26;89.19
13091;DHT22;6611;52.604;13.438;2023-01-08T19:25:55;7.27;89.29
13091;DHT22;6611;52.604;13.438;2023-01-08T19:30:59;7.33;89.09
13091;DHT22;6611;52.604;13.438;2023-01-08T19:36:02;7.31;89.39
13091;DHT22;6611;52.604;13.438;2023-01-08T19:41:10;7.41;89.24
13091;DHT22;6611;52.604;13.438;2023-01-08T19:46:29;7.41;89.20
13091;DHT22;6611;52.604;13.438;2023-01-08T19:51:32;7.41;88.76
13091;DHT22;6611;52.604;13.438;2023-01-08T19:56:34;7.48;88.46
13091;DHT22;6611;52.604;13.438;2023-01-08T20:01:37;7.40;88.81
13091;DHT22;6611;52.604;13.438;2023-01-08T20:06:40;7.46;88.56
13091;DHT22;6611;52.604;13.438;2023-01-08T20:11:41;7.50;88.61
13091;DHT22;6611;52.604;13.438;2023-01-08T20:16:44;7.55;88.40
13091;DHT22;6611;52.604;13.438;2023-01-08T20:21:46;7.51;88.32
13091;DHT22;6611;52.604;13.438;2023-01-08T20:26:48;7.48;88.11
13091;DHT22;6611;52.604;13.438;2023-01-08T20:31:51;7.35;87.72
13091;DHT22;6611;52.604;13.438;2023-01-08T20:36:56;7.37;87.67
13091;DHT22;6611;52.604;13.438;2023-01-08T20:41:57;7.22;87.59
13091;DHT22;6611;52.604;13.438;2023-01-08T20:47:00;7.27;87.33
13091;DHT22;6611;52.604;13.438;2023-01-08T20:52:02;7.15;87.72
13091;DHT22;6611;52.604;13.438;2023-01-08T20:57:04;7.17;87.71
13091;DHT22;6611;52.604;13.438;2023-01-08T21:02:08;7.06;88.10
13091;DHT22;6611;52.604;13.438;2023-01-08T21:07:10;7.16;87.94
13091;DHT22;6611;52.604;13.438;2023-01-08T21:12:13;7.15;87.85
13091;DHT22;6611;52.604;13.438;2023-01-08T21:17:16;7.15;87.48
13091;DHT22;6611;52.604;13.438;2023-01-08T21:22:19;7.17;87.62
13091;DHT22;6611;52.604;13.438;2023-01-08T21:27:20;7.10;87.57
13091;DHT22;6611;52.604;13.438;2023-01-08T21:32:23;7.10;87.27
13091;DHT22;6611;52.604;13.438;2023-01-08T21:37:27;7.06;87.42
13091;DHT22;6611;52.604;13.438;2023-01-08T21:42:30;7.06;87.22
13091;DHT22;6611;52.604;13.438;2023-01-08T21:47:52;7.12;88.38
13091;DHT22;6611;52.604;13.438;2023-01-08T21:52:54;7.00;87.10
13091;DHT22;6611;52.604;13.438;2023-01-08T21:58:14;7.06;87.34
13091;DHT22;6611;52.604;13.438;2023-01-08T22:03:18;7.05;87.11
13091;DHT22;6611;52.604;13.438;2023-01-08T22:08:20;7.10;87.77
13091;DHT22;6611;52.604;13.438;2023-01-08T22:13:22;7.13;86.38
13091;DHT22;6611;52.604;13.438;2023-01-08T22:18:25;7.07;86.28
13091;DHT22;6611;52.604;13.438;2023-01-08T22:23:27;7.03;86.60
13091;DHT22;6611;52.604;13.438;2023-01-08T22:28:29;7.00;86.16
13091;DHT22;6611;52.604;13.438;2023-01-08T22:33:33;6.96;86.57
13091;DHT22;6611;52.604;13.438;2023-01-08T22:38:36;6.95;86.38
13091;DHT22;6611;52.604;13.438;2023-01-08T22:43:38;6.91;86.57
13091;DHT22;6611;52.604;13.438;2023-01-08T22:48:43;6.98;86.68
13091;DHT22;6611;52.604;13.438;2023-01-08T22:53:46;6.99;86.14
13091;DHT22;6611;52.604;13.438;2023-01-08T22:58:47;6.99;86.15
13091;DHT22;6611;52.604;13.438;2023-01-08T23:03:52;6.91;86.38
13091;DHT22;6611;52.604;13.438;2023-01-08T23:08:55;6.96;85.94
13091;DHT22;6611;52.604;13.438;2023-01-08T23:13:58;7.00;85.53
13091;DHT22;6611;52.604;13.438;2023-01-08T23:19:02;6.85;85.87
13091;DHT22;6611;52.604;13.438;2023-01-08T23:24:05;6.64;86.46
13091;DHT22;6611;52.604;13.438;2023-01-08T23:29:07;6.50;86.90
13091;DHT22;6611;52.604;13.438;2023-01-08T23:34:10;6.33;87.06
13091;DHT22;6611;52.604;13.438;2023-01-08T23:39:12;6.29;87.24
13091;DHT22;6611;52.604;13.438;2023-01-08T23:44:14;6.29;87.11
13091;DHT22;6611;52.604;13.438;2023-01-08T23:49:17;6.32;87.05
13091;DHT22;6611;52.604;13.438;2023-01-08T23:54:19;6.23;86.95
13091;DHT22;6611;52.604;13.438;2023-01-08T23:59:20;6.05;87.32
